Arrowbear Lake, California
Current Conditions -  °F | °C
As of 1:50 PM on Monday 20 Oct 2014 (Local Time) from KSBD Reporting Station
Haze Haze  
Wind Chill: 75°   Ceiling: Unl
Heat Index: 75°   Visibility: 5mi
Dew Point: 55°   Wind: 3mph
Humidity: 50%   Direction: 220°SW
Pressure: 29.91"   Gusts: NA
Location:  34.1964°N, 117.089°W
Report Text: KSBD 202050Z 22003KT 5SM HZ FEW080 SCT150 24/13 A2991
Loading
Personal Weather Stations






























Interactive Weather Map New forecast layout! Learn more

10-Day Weather Forecast

Advertisements
Track Severe Weather on mobile